Time;durP1;ratioP1;P1;durP2;ratioP2;P2;SDS_P1;SDS_P2;PMS_P1;PMS_P2;Temp;Humidity;BMP_temperature;BMP_pressure;BME280_temperature;BME280_humidity;BME280_pressure;Samples;Min_cycle;Max_cycle;Signal;HPM_P1;HPM_P2
2023/05/23 00:01:15;;;;;;;;;;;;;;;;;;6294142;28;20013;-88
2023/05/23 00:04:17;;;;;;;11.73;5.55;;;;;;;;;;6283181;28;19908;-88
2023/05/23 00:07:17;;;;;;;13.05;6.45;;;;;;;;;;6293724;28;20016;-88
2023/05/23 00:10:17;;;;;;;10.80;5.63;;;;;;;;;;6293570;28;20021;-88
2023/05/23 00:13:18;;;;;;;12.23;7.17;;;;;;;;;;6293612;28;20021;-88
2023/05/23 00:16:18;;;;;;;13.00;5.80;;;;;;;;;;6293468;28;20024;-88
2023/05/23 00:19:19;;;;;;;10.60;6.73;;;;;;;;;;6293611;28;20013;-88
2023/05/23 00:22:19;;;;;;;11.13;6.03;;;;;;;;;;6271413;28;20386;-88
2023/05/23 00:25:20;;;;;;;11.37;7.20;;;;;;;;;;6275318;28;20017;-88
2023/05/23 00:28:21;;;;;;;12.25;6.07;;;;;;;;;;6288359;28;20047;-88
2023/05/23 00:31:21;;;;;;;14.30;6.80;;;;;;;;;;6292764;28;20037;-88
2023/05/23 00:34:22;;;;;;;16.47;6.93;;;;;;;;;;6273601;28;20024;-88
2023/05/23 00:37:22;;;;;;;9.23;5.73;;;;;;;;;;6292274;28;20017;-87
2023/05/23 00:40:22;;;;;;;12.63;6.93;;;;;;;;;;6292587;28;20056;-88
2023/05/23 00:43:23;;;;;;;17.87;6.60;;;;;;;;;;6293037;28;20025;-88
2023/05/23 00:46:23;;;;;;;9.87;5.90;;;;;;;;;;6290742;28;20021;-88
2023/05/23 00:49:23;;;;;;;15.20;6.87;;;;;;;;;;6275371;28;20016;-88
2023/05/23 00:52:24;;;;;;;10.30;6.73;;;;;;;;;;6274163;28;20017;-88
2023/05/23 00:55:24;;;;;;;11.70;6.37;;;;;;;;;;6291017;28;20020;-88
2023/05/23 00:58:24;;;;;;;15.70;8.27;;;;;;;;;;6264553;28;20041;-88
2023/05/23 01:01:25;;;;;;;10.77;6.90;;;;;;;;;;6244588;28;20575;-88
2023/05/23 01:04:27;;;;;;;9.43;5.73;;;;;;;;;;6253360;28;20503;-91
2023/05/23 01:07:27;;;;;;;12.20;6.13;;;;;;;;;;6255524;28;20010;-91
2023/05/23 01:10:28;;;;;;;12.20;6.30;;;;;;;;;;6255524;28;20025;-91
2023/05/23 01:13:54;;;;;;;10.90;6.53;;;;;;;;;;6249732;28;20048;-91
2023/05/23 01:16:59;;;;;;;9.15;5.70;;;;;;;;;;6246185;28;20351;-91
2023/05/23 01:20:11;;;;;;;11.32;6.82;;;;;;;;;;6249736;28;20021;-91
2023/05/23 01:23:30;;;;;;;11.50;6.10;;;;;;;;;;6251308;28;20052;-91
2023/05/23 01:26:47;;;;;;;12.57;6.20;;;;;;;;;;6250340;28;20033;-90
2023/05/23 01:29:48;;;;;;;9.98;6.18;;;;;;;;;;6250914;28;20013;-91
2023/05/23 01:32:50;;;;;;;10.85;6.07;;;;;;;;;;6253710;28;20025;-91
2023/05/23 01:35:50;;;;;;;12.07;6.38;;;;;;;;;;6261906;28;20179;-88
2023/05/23 01:38:51;;;;;;;10.53;6.40;;;;;;;;;;6259177;28;20029;-88
2023/05/23 01:41:51;;;;;;;13.63;6.63;;;;;;;;;;6252482;28;20014;-88
2023/05/23 01:44:52;;;;;;;12.10;7.63;;;;;;;;;;6246177;28;20476;-88
2023/05/23 01:47:52;;;;;;;14.73;6.83;;;;;;;;;;6250164;28;20494;-91
2023/05/23 01:50:53;;;;;;;13.87;7.77;;;;;;;;;;6258282;28;20031;-91
2023/05/23 01:53:53;;;;;;;14.57;7.87;;;;;;;;;;6249778;28;20053;-90
2023/05/23 01:56:55;;;;;;;10.87;6.37;;;;;;;;;;6244744;28;20025;-91
2023/05/23 01:59:55;;;;;;;11.88;6.82;;;;;;;;;;6295911;28;20020;-91
2023/05/23 02:02:56;;;;;;;11.60;7.40;;;;;;;;;;6289738;28;20047;-90
2023/05/23 02:05:56;;;;;;;11.17;6.37;;;;;;;;;;6279498;28;20016;-88
2023/05/23 02:08:56;;;;;;;12.73;7.50;;;;;;;;;;6278005;28;20044;-88
2023/05/23 02:11:58;;;;;;;11.27;6.63;;;;;;;;;;6296380;28;20016;-88
2023/05/23 02:14:58;;;;;;;12.85;7.57;;;;;;;;;;6272131;28;20048;-91
2023/05/23 02:17:58;;;;;;;11.57;8.20;;;;;;;;;;6292782;28;20021;-90
2023/05/23 02:20:59;;;;;;;12.67;6.67;;;;;;;;;;6294829;28;20051;-90
2023/05/23 02:23:59;;;;;;;13.07;7.50;;;;;;;;;;6276850;28;20065;-91
2023/05/23 02:26:59;;;;;;;15.63;7.53;;;;;;;;;;6291983;28;20012;-91
2023/05/23 02:29:59;;;;;;;11.97;6.57;;;;;;;;;;6295693;28;20012;-90
2023/05/23 02:33:03;;;;;;;15.23;8.37;;;;;;;;;;6276556;28;20491;-91
2023/05/23 02:36:03;;;;;;;10.23;6.35;;;;;;;;;;6276413;28;20024;-91
2023/05/23 02:39:04;;;;;;;16.17;8.73;;;;;;;;;;6275778;28;20513;-91
2023/05/23 02:42:04;;;;;;;13.23;6.23;;;;;;;;;;6294272;28;20390;-91
2023/05/23 02:45:05;;;;;;;10.30;7.07;;;;;;;;;;6278512;28;20090;-91
2023/05/23 02:48:05;;;;;;;18.40;7.00;;;;;;;;;;6275374;28;20343;-91
2023/05/23 02:51:05;;;;;;;12.30;6.63;;;;;;;;;;6294472;28;20173;-91
2023/05/23 02:54:05;;;;;;;13.53;7.40;;;;;;;;;;6276058;28;20056;-91
2023/05/23 02:57:06;;;;;;;13.10;7.40;;;;;;;;;;6275791;28;20028;-91
2023/05/23 03:00:08;;;;;;;9.23;6.83;;;;;;;;;;6275966;28;20027;-91
2023/05/23 03:03:08;;;;;;;11.85;7.00;;;;;;;;;;6275689;28;20013;-91
2023/05/23 03:06:13;;;;;;;12.40;7.80;;;;;;;;;;6294183;28;20108;-91
2023/05/23 03:09:14;;;;;;;12.02;7.80;;;;;;;;;;6255824;28;20509;-90
2023/05/23 03:12:14;;;;;;;13.53;8.03;;;;;;;;;;6275456;28;20017;-91
2023/05/23 03:15:14;;;;;;;12.03;7.97;;;;;;;;;;6276313;28;20017;-88
2023/05/23 03:18:15;;;;;;;11.73;7.10;;;;;;;;;;6276079;28;20113;-88
2023/05/23 03:21:15;;;;;;;14.30;7.80;;;;;;;;;;6276355;28;20092;-88
2023/05/23 03:24:15;;;;;;;13.27;7.70;;;;;;;;;;6275797;28;20135;-91
2023/05/23 03:27:15;;;;;;;15.70;7.57;;;;;;;;;;6289647;28;20017;-90
2023/05/23 03:30:16;;;;;;;15.10;8.60;;;;;;;;;;6293582;28;20103;-91
2023/05/23 03:33:16;;;;;;;13.53;7.93;;;;;;;;;;6278024;28;20055;-91
2023/05/23 03:36:17;;;;;;;14.97;8.30;;;;;;;;;;6276443;28;20046;-91
2023/05/23 03:39:17;;;;;;;12.87;8.30;;;;;;;;;;6294907;28;20055;-90
2023/05/23 03:42:17;;;;;;;12.90;7.53;;;;;;;;;;6295148;28;20020;-90
2023/05/23 03:45:18;;;;;;;15.00;9.17;;;;;;;;;;6278600;28;20017;-90
2023/05/23 03:48:18;;;;;;;12.73;8.97;;;;;;;;;;6275977;28;20031;-91
2023/05/23 03:51:18;;;;;;;13.10;8.33;;;;;;;;;;6278131;28;20103;-90
2023/05/23 03:54:18;;;;;;;17.87;9.10;;;;;;;;;;6300491;28;20038;-90
2023/05/23 03:57:19;;;;;;;13.13;7.93;;;;;;;;;;6301725;28;20036;-89
2023/05/23 04:00:19;;;;;;;15.83;8.50;;;;;;;;;;6298870;28;20016;-91
2023/05/23 04:03:19;;;;;;;15.73;8.87;;;;;;;;;;6290814;28;20484;-91
2023/05/23 04:06:19;;;;;;;11.03;8.27;;;;;;;;;;6258345;28;20027;-91
2023/05/23 04:09:20;;;;;;;13.57;7.27;;;;;;;;;;6271477;28;20021;-90
2023/05/23 04:12:21;;;;;;;16.67;8.60;;;;;;;;;;6269897;28;20028;-91
2023/05/23 04:15:21;;;;;;;14.50;7.37;;;;;;;;;;6272271;28;20021;-91
2023/05/23 04:18:22;;;;;;;10.67;7.33;;;;;;;;;;6274750;28;20023;-90
2023/05/23 04:21:22;;;;;;;10.57;7.43;;;;;;;;;;6273759;28;20085;-90
2023/05/23 04:24:22;;;;;;;17.13;9.33;;;;;;;;;;6274607;28;20025;-90
2023/05/23 04:27:24;;;;;;;9.47;7.07;;;;;;;;;;6274735;28;20104;-91
2023/05/23 04:30:25;;;;;;;9.63;6.28;;;;;;;;;;6274912;28;20016;-91
2023/05/23 04:33:27;;;;;;;14.77;7.23;;;;;;;;;;6292641;28;20051;-91
2023/05/23 04:36:27;;;;;;;;;;;;;;;;;;6294807;28;20487;-90
2023/05/23 04:39:30;;;;;;;11.68;6.90;;;;;;;;;;6278969;28;19916;-91
2023/05/23 04:42:32;;;;;;;15.02;7.35;;;;;;;;;;6282472;28;20016;-90
2023/05/23 04:45:32;;;;;;;11.27;6.88;;;;;;;;;;6297084;28;20364;-90
2023/05/23 04:48:35;;;;;;;12.67;6.67;;;;;;;;;;6279298;28;20027;-90
2023/05/23 04:51:35;;;;;;;13.48;6.82;;;;;;;;;;6279613;28;20330;-90
2023/05/23 04:54:36;;;;;;;15.20;6.83;;;;;;;;;;6297164;28;20039;-90
2023/05/23 04:57:36;;;;;;;10.03;6.23;;;;;;;;;;6271860;28;20398;-90
2023/05/23 05:00:37;;;;;;;9.83;6.53;;;;;;;;;;6297357;28;20024;-90
2023/05/23 05:03:37;;;;;;;14.47;6.73;;;;;;;;;;6276058;28;20071;-90
2023/05/23 05:06:40;;;;;;;13.63;6.70;;;;;;;;;;6276006;28;20029;-91
2023/05/23 05:09:40;;;;;;;12.65;6.97;;;;;;;;;;6279453;28;20074;-90
2023/05/23 05:12:40;;;;;;;12.77;7.40;;;;;;;;;;6295109;28;20024;-90
2023/05/23 05:15:41;;;;;;;9.98;7.43;;;;;;;;;;6297069;28;20021;-90
2023/05/23 05:18:41;;;;;;;13.03;6.67;;;;;;;;;;6276330;28;20387;-91
2023/05/23 05:21:41;;;;;;;14.33;7.30;;;;;;;;;;6278720;28;20293;-90
2023/05/23 05:24:42;;;;;;;11.90;6.37;;;;;;;;;;6278224;28;20021;-90
2023/05/23 05:27:42;;;;;;;11.70;6.43;;;;;;;;;;6279358;28;20012;-90
2023/05/23 05:30:45;;;;;;;14.93;6.60;;;;;;;;;;6296839;28;20070;-90
2023/05/23 05:33:45;;;;;;;13.60;6.38;;;;;;;;;;6284638;28;20005;-90
2023/05/23 05:36:46;;;;;;;10.70;5.67;;;;;;;;;;6275332;28;20391;-88
2023/05/23 05:39:47;;;;;;;10.23;6.00;;;;;;;;;;6295252;28;20039;-88
2023/05/23 05:42:47;;;;;;;11.17;5.70;;;;;;;;;;6278434;28;20012;-88
2023/05/23 05:45:47;;;;;;;12.23;5.97;;;;;;;;;;6278423;28;20024;-88
2023/05/23 05:48:48;;;;;;;10.97;5.33;;;;;;;;;;6277187;28;20020;-88
2023/05/23 05:51:48;;;;;;;12.73;5.40;;;;;;;;;;6295554;28;20021;-88
2023/05/23 05:54:49;;;;;;;10.63;5.33;;;;;;;;;;6296057;28;20374;-88
2023/05/23 05:57:50;;;;;;;14.15;5.47;;;;;;;;;;6297148;28;20051;-89
2023/05/23 06:00:50;;;;;;;9.20;5.43;;;;;;;;;;6297517;28;20479;-89
2023/05/23 06:03:50;;;;;;;12.93;5.87;;;;;;;;;;6292289;28;20024;-88
2023/05/23 06:06:50;;;;;;;9.37;4.60;;;;;;;;;;6297419;28;20471;-88
2023/05/23 06:09:50;;;;;;;10.13;4.90;;;;;;;;;;6295488;28;20024;-88
2023/05/23 06:12:51;;;;;;;11.83;5.23;;;;;;;;;;6279268;28;20021;-88
2023/05/23 06:15:51;;;;;;;8.33;5.30;;;;;;;;;;6291041;28;20043;-89
2023/05/23 06:18:51;;;;;;;8.77;5.37;;;;;;;;;;6277470;28;20770;-88
2023/05/23 06:21:51;;;;;;;;;;;;;;;;;;6296704;28;20550;-88
2023/05/23 06:24:51;;;;;;;11.32;5.78;;;;;;;;;;6295178;28;19917;-88
2023/05/23 06:27:52;;;;;;;;;;;;;;;;;;6281317;28;20479;-88
2023/05/23 06:30:52;;;;;;;15.50;6.05;;;;;;;;;;6280424;28;19908;-88
2023/05/23 06:33:53;;;;;;;;;;;;;;;;;;6297324;28;20499;-88
2023/05/23 06:36:53;;;;;;;11.43;5.32;;;;;;;;;;6291511;28;20015;-88
2023/05/23 06:39:53;;;;;;;;;;;;;;;;;;6287055;28;20017;-87
2023/05/23 06:42:54;;;;;;;9.95;5.57;;;;;;;;;;6277392;28;19916;-87
2023/05/23 06:45:54;;;;;;;;;;;;;;;;;;6269998;28;20028;-87
2023/05/23 06:48:54;;;;;;;10.35;5.75;;;;;;;;;;6292602;28;19908;-88
2023/05/23 06:51:55;;;;;;;10.03;4.73;;;;;;;;;;6275214;28;20578;-89
2023/05/23 06:54:55;;;;;;;10.83;4.70;;;;;;;;;;6294573;28;20613;-88
2023/05/23 06:57:55;;;;;;;8.80;4.57;;;;;;;;;;6278648;28;20071;-89
2023/05/23 07:00:55;;;;;;;13.57;5.60;;;;;;;;;;6291392;28;20508;-89
2023/05/23 07:03:56;;;;;;;7.47;4.63;;;;;;;;;;6282555;28;20417;-89
2023/05/23 07:06:56;;;;;;;11.80;5.03;;;;;;;;;;6290653;28;20467;-89
2023/05/23 07:09:56;;;;;;;13.40;5.03;;;;;;;;;;6286164;28;20365;-89
2023/05/23 07:12:56;;;;;;;9.40;4.87;;;;;;;;;;6282224;28;20029;-89
2023/05/23 07:15:56;;;;;;;9.20;5.10;;;;;;;;;;6287922;28;20569;-88
2023/05/23 07:18:57;;;;;;;15.10;5.53;;;;;;;;;;6301334;28;20438;-88
2023/05/23 07:21:57;;;;;;;9.00;4.50;;;;;;;;;;6293099;28;20096;-89
2023/05/23 07:24:57;;;;;;;10.43;4.57;;;;;;;;;;6307369;28;20041;-89
2023/05/23 07:27:59;;;;;;;10.77;5.23;;;;;;;;;;6307269;28;20021;-89
2023/05/23 07:30:59;;;;;;;9.38;4.57;;;;;;;;;;6283742;28;20271;-89
2023/05/23 07:33:59;;;;;;;8.10;4.22;;;;;;;;;;6303106;28;20023;-89
2023/05/23 07:37:00;;;;;;;8.47;5.00;;;;;;;;;;6303054;28;20016;-89
2023/05/23 07:40:03;;;;;;;7.28;3.88;;;;;;;;;;6291887;28;20111;-89
2023/05/23 07:43:03;;;;;;;10.10;4.40;;;;;;;;;;6288598;28;20076;-89
2023/05/23 07:46:03;;;;;;;12.80;6.07;;;;;;;;;;6304934;28;20197;-89
2023/05/23 07:49:04;;;;;;;7.80;4.50;;;;;;;;;;6308706;28;21086;-89
2023/05/23 07:52:05;;;;;;;10.90;5.13;;;;;;;;;;6309664;28;20111;-90
2023/05/23 07:55:06;;;;;;;9.45;4.10;;;;;;;;;;6292207;28;20046;-92
2023/05/23 07:58:06;;;;;;;8.15;3.97;;;;;;;;;;6308092;28;20044;-92
2023/05/23 08:01:06;;;;;;;8.70;5.07;;;;;;;;;;6306533;28;20024;-91
2023/05/23 08:04:07;;;;;;;8.38;5.15;;;;;;;;;;6305665;28;20085;-94
2023/05/23 08:07:08;;;;;;;9.67;4.77;;;;;;;;;;6316196;28;20028;-92
2023/05/23 08:10:08;;;;;;;8.68;5.03;;;;;;;;;;6323410;28;20068;-91
2023/05/23 08:13:09;;;;;;;8.17;4.73;;;;;;;;;;6314288;28;20096;-93
2023/05/23 08:16:09;;;;;;;7.33;4.57;;;;;;;;;;6302861;28;20278;-93
2023/05/23 08:19:09;;;;;;;6.30;4.33;;;;;;;;;;6305339;28;20017;-93
2023/05/23 08:22:10;;;;;;;7.70;4.35;;;;;;;;;;6312847;28;20021;-93
2023/05/23 08:25:10;;;;;;;6.03;4.63;;;;;;;;;;6284236;28;20078;-89
2023/05/23 08:28:10;;;;;;;9.02;4.88;;;;;;;;;;6265985;28;20534;-89
2023/05/23 08:31:11;;;;;;;9.03;4.80;;;;;;;;;;6295566;28;20399;-89
2023/05/23 08:34:11;;;;;;;8.32;4.63;;;;;;;;;;6295491;28;20064;-89
2023/05/23 08:37:11;;;;;;;9.45;4.60;;;;;;;;;;6284250;28;20025;-89
2023/05/23 08:40:13;;;;;;;7.77;4.83;;;;;;;;;;6297936;28;20027;-91
2023/05/23 08:43:14;;;;;;;12.55;5.20;;;;;;;;;;6280958;28;20362;-91
2023/05/23 08:46:14;;;;;;;8.05;4.65;;;;;;;;;;6300494;28;20027;-91
2023/05/23 08:49:16;;;;;;;9.23;4.40;;;;;;;;;;6277197;28;20025;-91
2023/05/23 08:52:20;;;;;;;9.93;5.10;;;;;;;;;;6296545;28;20016;-90
2023/05/23 08:55:27;;;;;;;7.45;4.18;;;;;;;;;;6275306;28;20108;-91
2023/05/23 08:58:30;;;;;;;9.38;5.22;;;;;;;;;;6300029;28;20624;-91
2023/05/23 09:01:33;;;;;;;7.15;4.22;;;;;;;;;;6299596;28;20064;-89
2023/05/23 09:04:33;;;;;;;6.20;4.10;;;;;;;;;;6302730;28;20103;-87
2023/05/23 09:07:33;;;;;;;;;;;;;;;;;;6282564;28;20016;-88
2023/05/23 09:10:34;;;;;;;12.90;5.45;;;;;;;;;;6283186;28;19912;-87
2023/05/23 09:13:34;;;;;;;;;;;;;;;;;;6302726;28;20020;-88
2023/05/23 09:16:35;;;;;;;7.80;5.28;;;;;;;;;;6280891;28;20681;-89
2023/05/23 09:19:35;;;;;;;;;;;;;;;;;;6296987;28;20024;-89
2023/05/23 09:22:35;;;;;;;9.73;5.18;;;;;;;;;;6297000;28;19914;-90
2023/05/23 09:25:38;;;;;;;10.10;5.00;;;;;;;;;;6291493;28;20086;-90
2023/05/23 09:28:41;;;;;;;7.28;4.68;;;;;;;;;;6277350;28;20782;-89
2023/05/23 09:31:43;;;;;;;11.07;4.60;;;;;;;;;;6293413;28;20475;-90
2023/05/23 09:34:49;;;;;;;6.50;3.90;;;;;;;;;;6290474;28;20024;-90
2023/05/23 09:37:51;;;;;;;13.85;4.82;;;;;;;;;;6293311;28;20082;-89
2023/05/23 09:40:54;;;;;;;7.82;4.50;;;;;;;;;;6271190;28;20016;-90
2023/05/23 09:43:55;;;;;;;7.47;4.68;;;;;;;;;;6291643;28;20020;-89
2023/05/23 09:46:55;;;;;;;;;;;;;;;;;;6276479;28;20514;-89
2023/05/23 09:49:58;;;;;;;8.38;4.30;;;;;;;;;;6299031;28;19908;-90
2023/05/23 09:53:01;;;;;;;11.13;4.22;;;;;;;;;;6292724;28;20036;-90
2023/05/23 09:56:02;;;;;;;8.45;4.32;;;;;;;;;;6294933;28;20039;-90
2023/05/23 09:59:02;;;;;;;;;;;;;;;;;;6295938;28;20044;-90
2023/05/23 10:02:05;;;;;;;8.80;4.00;;;;;;;;;;6294400;28;19904;-90
2023/05/23 10:05:07;;;;;;;11.10;3.97;;;;;;;;;;6275814;28;20025;-90
2023/05/23 10:08:10;;;;;;;30.85;6.95;;;;;;;;;;6293874;28;20033;-90
2023/05/23 10:11:13;;;;;;;11.52;3.88;;;;;;;;;;6294047;28;20225;-90
2023/05/23 10:14:15;;;;;;;8.75;4.18;;;;;;;;;;6274858;28;20032;-89
2023/05/23 10:17:21;;;;;;;7.82;4.03;;;;;;;;;;6276167;28;20081;-89
2023/05/23 10:20:24;;;;;;;9.25;4.13;;;;;;;;;;6270599;28;20013;-90
2023/05/23 10:23:25;;;;;;;9.20;3.92;;;;;;;;;;6276003;28;21845;-90
2023/05/23 10:26:25;;;;;;;;;;;;;;;;;;6276757;28;20029;-89
2023/05/23 10:29:26;;;;;;;10.80;3.92;;;;;;;;;;6276904;28;20504;-90
2023/05/23 10:32:26;;;;;;;;;;;;;;;;;;6290426;28;20091;-90
2023/05/23 10:35:44;;;;;;;6.88;3.90;;;;;;;;;;6276807;28;19908;-90
2023/05/23 10:38:48;;;;;;;7.88;3.90;;;;;;;;;;6276793;28;20107;-89
2023/05/23 10:41:54;;;;;;;6.78;3.88;;;;;;;;;;6293170;28;20017;-89
2023/05/23 10:45:12;;;;;;;5.95;3.42;;;;;;;;;;6275945;28;20012;-90
2023/05/23 10:48:18;;;;;;;8.20;4.28;;;;;;;;;;6293639;28;20020;-90
2023/05/23 10:51:20;;;;;;;7.05;3.90;;;;;;;;;;6287709;28;20103;-90
2023/05/23 10:54:21;;;;;;;7.05;4.00;;;;;;;;;;6271110;28;20009;-90
2023/05/23 10:57:21;;;;;;;;;;;;;;;;;;6274799;28;20039;-89
2023/05/23 11:00:23;;;;;;;11.68;3.80;;;;;;;;;;6294404;28;20368;-90
2023/05/23 11:03:30;;;;;;;8.20;4.15;;;;;;;;;;6276387;28;20035;-90
2023/05/23 11:06:32;;;;;;;7.43;3.78;;;;;;;;;;6284196;28;20021;-89
2023/05/23 11:09:32;;;;;;;11.98;4.53;;;;;;;;;;6286962;28;20359;-89
2023/05/23 11:12:32;;;;;;;;;;;;;;;;;;6274315;28;20033;-90
2023/05/23 11:15:41;;;;;;;8.95;4.38;;;;;;;;;;6292851;28;19959;-90
2023/05/23 11:18:41;;;;;;;8.25;4.35;;;;;;;;;;6293353;28;20044;-90
2023/05/23 11:21:41;;;;;;;;;;;;;;;;;;6284539;28;20019;-90
2023/05/23 11:24:52;;;;;;;9.83;4.60;;;;;;;;;;6272132;28;20006;-90
2023/05/23 11:27:52;;;;;;;7.17;3.93;;;;;;;;;;6292697;28;20100;-89
2023/05/23 11:30:53;;;;;;;;;;;;;;;;;;6294519;28;20017;-90
2023/05/23 11:33:53;;;;;;;6.90;3.87;;;;;;;;;;6286877;28;19999;-91
2023/05/23 11:36:53;;;;;;;;;;;;;;;;;;6283724;28;20039;-90
2023/05/23 11:39:53;;;;;;;8.98;4.20;;;;;;;;;;6266232;28;20016;-91
2023/05/23 11:42:54;;;;;;;;;;;;;;;;;;6284761;28;20483;-92
2023/05/23 11:45:54;;;;;;;7.25;3.92;;;;;;;;;;6270306;28;20405;-92
2023/05/23 11:48:54;;;;;;;;;;;;;;;;;;6280861;28;20048;-92
2023/05/23 11:51:55;;;;;;;10.80;4.68;;;;;;;;;;6289843;28;19920;-92
2023/05/23 11:54:55;;;;;;;;;;;;;;;;;;6276624;28;20058;-92
2023/05/23 11:57:56;;;;;;;6.77;4.20;;;;;;;;;;6273002;28;19970;-92
2023/05/23 12:00:56;;;;;;;;;;;;;;;;;;6274170;28;20036;-91
2023/05/23 12:03:56;;;;;;;9.98;4.20;;;;;;;;;;6277859;28;19975;-91
2023/05/23 12:06:56;;;;;;;;;;;;;;;;;;6272112;28;20465;-92
2023/05/23 12:09:57;;;;;;;5.50;4.15;;;;;;;;;;6277606;28;19992;-91
2023/05/23 12:12:57;;;;;;;8.27;3.60;;;;;;;;;;6297777;28;20478;-91
2023/05/23 12:15:59;;;;;;;11.93;4.00;;;;;;;;;;6305643;28;20035;-91
2023/05/23 12:19:00;;;;;;;9.27;4.88;;;;;;;;;;6303686;28;20378;-91
2023/05/23 12:22:05;;;;;;;9.98;3.90;;;;;;;;;;6313321;28;20061;-92
2023/05/23 12:25:07;;;;;;;8.70;3.97;;;;;;;;;;6273568;28;20032;-91
2023/05/23 12:28:09;;;;;;;8.15;4.60;;;;;;;;;;6295429;28;20024;-91
2023/05/23 12:31:09;;;;;;;6.90;3.80;;;;;;;;;;6279841;28;20031;-91
2023/05/23 12:34:10;;;;;;;6.53;3.93;;;;;;;;;;6270991;28;20021;-91
2023/05/23 12:37:11;;;;;;;7.20;4.00;;;;;;;;;;6270690;28;20274;-91
2023/05/23 12:40:17;;;;;;;8.02;4.47;;;;;;;;;;6276050;28;20012;-91
2023/05/23 12:43:17;;;;;;;6.30;4.05;;;;;;;;;;6276053;28;20025;-91
2023/05/23 12:46:22;;;;;;;10.45;4.50;;;;;;;;;;6275060;28;20035;-91
2023/05/23 12:49:22;;;;;;;12.80;3.90;;;;;;;;;;6292722;28;20027;-91
2023/05/23 12:52:22;;;;;;;14.60;4.80;;;;;;;;;;6280600;28;20590;-91
2023/05/23 12:55:23;;;;;;;7.13;4.20;;;;;;;;;;6289084;28;20041;-91
2023/05/23 12:58:23;;;;;;;8.80;4.57;;;;;;;;;;6294210;28;20073;-91
2023/05/23 13:01:24;;;;;;;10.55;5.22;;;;;;;;;;6276228;28;20108;-91
2023/05/23 13:04:24;;;;;;;;;;;;;;;;;;6280974;28;20021;-90
2023/05/23 13:07:24;;;;;;;15.73;6.95;;;;;;;;;;6294265;28;19955;-91
2023/05/23 13:10:24;;;;;;;;;;;;;;;;;;6279089;28;20442;-90
2023/05/23 13:13:25;;;;;;;19.48;6.45;;;;;;;;;;6288382;28;19912;-91
2023/05/23 13:16:25;;;;;;;16.95;6.68;;;;;;;;;;6276128;28;20108;-91
2023/05/23 13:19:26;;;;;;;14.40;6.70;;;;;;;;;;6275473;28;20047;-91
2023/05/23 13:22:26;;;;;;;18.02;6.88;;;;;;;;;;6292796;28;20019;-91
2023/05/23 13:25:26;;;;;;;11.63;6.73;;;;;;;;;;6273455;28;20678;-91
2023/05/23 13:28:26;;;;;;;14.43;7.80;;;;;;;;;;6279649;28;20044;-91
2023/05/23 13:31:27;;;;;;;17.10;7.07;;;;;;;;;;6279476;28;20028;-92
2023/05/23 13:34:27;;;;;;;10.97;7.70;;;;;;;;;;6299155;28;20017;-91
2023/05/23 13:37:27;;;;;;;14.73;8.80;;;;;;;;;;6283311;28;20383;-91
2023/05/23 13:40:28;;;;;;;15.53;8.37;;;;;;;;;;6284129;28;20008;-91
2023/05/23 13:43:30;;;;;;;19.33;9.87;;;;;;;;;;6305493;28;20000;-92
2023/05/23 13:46:30;;;;;;;14.07;8.82;;;;;;;;;;6311075;28;20032;-92
2023/05/23 13:49:30;;;;;;;17.87;9.77;;;;;;;;;;6290384;28;20016;-91
2023/05/23 13:52:30;;;;;;;17.60;10.83;;;;;;;;;;6294445;28;20013;-91
2023/05/23 13:55:31;;;;;;;17.27;10.97;;;;;;;;;;6302838;28;20035;-93
2023/05/23 13:58:31;;;;;;;14.97;9.97;;;;;;;;;;6322595;28;20039;-91
2023/05/23 14:01:32;;;;;;;15.33;9.90;;;;;;;;;;6332130;22;20007;-84
2023/05/23 14:04:32;;;;;;;20.63;10.87;;;;;;;;;;6263751;28;20029;-83
2023/05/23 14:07:32;;;;;;;17.70;10.20;;;;;;;;;;6266824;28;20468;-84
2023/05/23 14:10:32;;;;;;;15.70;9.90;;;;;;;;;;6257498;28;20112;-85
2023/05/23 14:13:32;;;;;;;15.13;11.80;;;;;;;;;;6271963;28;20013;-85
2023/05/23 14:16:33;;;;;;;18.03;10.40;;;;;;;;;;6267663;28;20029;-84
2023/05/23 14:19:33;;;;;;;15.27;9.83;;;;;;;;;;6266606;28;20013;-84
2023/05/23 14:22:33;;;;;;;15.18;10.05;;;;;;;;;;6269118;28;20494;-78
2023/05/23 14:25:33;;;;;;;12.17;9.27;;;;;;;;;;6270089;28;20052;-78
2023/05/23 14:28:33;;;;;;;14.03;9.87;;;;;;;;;;6268381;28;20032;-78
2023/05/23 14:31:34;;;;;;;15.10;9.97;;;;;;;;;;6269422;28;20029;-78
2023/05/23 14:34:34;;;;;;;16.03;10.50;;;;;;;;;;6269211;28;20502;-78
2023/05/23 14:37:35;;;;;;;19.43;10.37;;;;;;;;;;6264358;28;20100;-78
2023/05/23 14:40:36;;;;;;;15.68;8.57;;;;;;;;;;6267412;28;20025;-77
2023/05/23 14:43:36;;;;;;;17.13;10.03;;;;;;;;;;6269397;28;20032;-77
2023/05/23 14:46:36;;;;;;;20.27;13.05;;;;;;;;;;6264302;28;20013;-77
2023/05/23 14:49:36;;;;;;;17.90;11.57;;;;;;;;;;6268177;28;20518;-77
2023/05/23 14:52:36;;;;;;;16.87;9.20;;;;;;;;;;6262965;28;20025;-77
2023/05/23 14:55:37;;;;;;;13.47;8.73;;;;;;;;;;6267069;28;20021;-77
2023/05/23 14:58:40;;;;;;;13.37;9.27;;;;;;;;;;6257630;28;20079;-78
2023/05/23 15:01:40;;;;;;;16.23;10.20;;;;;;;;;;6268190;28;20082;-79
2023/05/23 15:04:40;;;;;;;16.40;9.40;;;;;;;;;;6250550;28;20066;-78
2023/05/23 15:07:40;;;;;;;15.83;9.43;;;;;;;;;;6250078;28;20569;-78
2023/05/23 15:10:43;;;;;;;13.00;10.10;;;;;;;;;;6270166;28;20016;-78
2023/05/23 15:13:43;;;;;;;14.02;9.20;;;;;;;;;;6265228;28;20410;-80
2023/05/23 15:16:44;;;;;;;13.57;9.17;;;;;;;;;;6260575;28;20033;-78
2023/05/23 15:19:45;;;;;;;18.02;10.55;;;;;;;;;;6249082;28;20024;-78
2023/05/23 15:22:45;;;;;;;19.10;9.77;;;;;;;;;;6248539;28;20943;-84
2023/05/23 15:25:45;;;;;;;16.23;10.20;;;;;;;;;;6259690;28;20037;-84
2023/05/23 15:28:46;;;;;;;18.10;11.30;;;;;;;;;;6267760;28;20033;-83
2023/05/23 15:31:46;;;;;;;15.33;11.03;;;;;;;;;;6247154;28;20021;-84
2023/05/23 15:34:46;;;;;;;14.70;11.67;;;;;;;;;;6247289;28;20045;-84
2023/05/23 15:37:47;;;;;;;15.87;12.23;;;;;;;;;;6248028;28;20124;-85
2023/05/23 15:40:47;;;;;;;14.13;10.90;;;;;;;;;;6267954;28;20020;-86
2023/05/23 15:43:47;;;;;;;17.47;11.17;;;;;;;;;;6265689;28;20079;-87
2023/05/23 15:46:49;;;;;;;16.63;11.50;;;;;;;;;;6250041;28;20037;-86
2023/05/23 15:49:49;;;;;;;;;;;;;;;;;;6265510;28;20025;-85
2023/05/23 15:52:50;;;;;;;16.23;10.00;;;;;;;;;;6265164;28;19905;-84
2023/05/23 15:55:50;;;;;;;22.43;11.43;;;;;;;;;;6266865;28;20755;-84
2023/05/23 15:58:50;;;;;;;13.73;10.37;;;;;;;;;;6245021;28;20454;-84
2023/05/23 16:01:52;;;;;;;20.80;11.03;;;;;;;;;;6265342;28;20318;-84
2023/05/23 16:04:52;;;;;;;17.27;10.40;;;;;;;;;;6266348;28;20013;-83
2023/05/23 16:07:53;;;;;;;14.33;9.47;;;;;;;;;;6263792;28;20495;-84
2023/05/23 16:10:53;;;;;;;15.90;10.23;;;;;;;;;;6266544;28;20480;-83
2023/05/23 16:13:53;;;;;;;15.43;8.33;;;;;;;;;;6262904;28;20025;-84
2023/05/23 16:16:53;;;;;;;13.67;8.50;;;;;;;;;;6259486;28;20105;-84
2023/05/23 16:19:54;;;;;;;16.27;9.17;;;;;;;;;;6248681;28;20568;-84
2023/05/23 16:22:54;;;;;;;16.37;8.97;;;;;;;;;;6266236;28;20513;-84
2023/05/23 16:25:54;;;;;;;17.23;9.40;;;;;;;;;;6266802;28;20032;-84
2023/05/23 16:28:54;;;;;;;11.50;8.07;;;;;;;;;;6266908;28;20480;-84
2023/05/23 16:31:55;;;;;;;11.23;7.40;;;;;;;;;;6267322;28;20021;-78
2023/05/23 16:34:55;;;;;;;16.67;8.57;;;;;;;;;;6269860;28;20402;-78
2023/05/23 16:37:55;;;;;;;17.47;9.50;;;;;;;;;;6270681;28;20098;-78
2023/05/23 16:40:55;;;;;;;13.70;8.57;;;;;;;;;;6253378;28;20021;-85
2023/05/23 16:43:56;;;;;;;12.73;8.90;;;;;;;;;;6268069;28;20544;-84
2023/05/23 16:46:56;;;;;;;17.30;10.20;;;;;;;;;;6265116;28;20021;-84
2023/05/23 16:49:56;;;;;;;16.40;10.13;;;;;;;;;;6264316;28;20041;-83
2023/05/23 16:52:56;;;;;;;16.10;7.30;;;;;;;;;;6259920;28;20024;-85
2023/05/23 16:55:57;;;;;;;13.10;8.13;;;;;;;;;;6271856;28;20133;-84
2023/05/23 16:58:58;;;;;;;16.47;7.43;;;;;;;;;;6260537;28;20124;-85
2023/05/23 17:02:04;;;;;;;15.40;8.00;;;;;;;;;;6275932;28;20048;-84
2023/05/23 17:05:04;;;;;;;14.00;7.30;;;;;;;;;;6277430;28;20013;-85
2023/05/23 17:08:14;;;;;;;15.30;8.27;;;;;;;;;;6255647;28;20020;-85
2023/05/23 17:11:14;;;;;;;14.90;7.35;;;;;;;;;;6268044;28;20013;-83
2023/05/23 17:14:15;;;;;;;12.50;8.93;;;;;;;;;;6273863;28;20016;-84
2023/05/23 17:17:15;;;;;;;13.83;8.00;;;;;;;;;;6276482;28;20467;-84
2023/05/23 17:20:15;;;;;;;15.40;8.43;;;;;;;;;;6273199;28;20107;-81
2023/05/23 17:23:17;;;;;;;16.10;8.53;;;;;;;;;;6277530;28;20092;-85
2023/05/23 17:26:19;;;;;;;17.65;8.95;;;;;;;;;;6266542;28;20505;-85
2023/05/23 17:29:19;;;;;;;16.75;9.10;;;;;;;;;;6257029;28;20020;-84
2023/05/23 17:32:20;;;;;;;14.07;8.67;;;;;;;;;;6272317;28;20395;-85
2023/05/23 17:35:20;;;;;;;14.43;10.00;;;;;;;;;;6266636;28;20494;-84
2023/05/23 17:38:20;;;;;;;14.63;9.33;;;;;;;;;;6257864;28;20017;-85
2023/05/23 17:41:25;;;;;;;14.63;9.83;;;;;;;;;;6257937;28;20025;-86
2023/05/23 17:44:26;;;;;;;17.30;10.80;;;;;;;;;;6275693;28;20426;-85
2023/05/23 17:47:26;;;;;;;16.30;11.43;;;;;;;;;;6277925;28;20040;-83
2023/05/23 17:50:27;;;;;;;22.87;14.03;;;;;;;;;;6280239;28;20035;-84
2023/05/23 17:53:27;;;;;;;19.40;12.07;;;;;;;;;;6278303;28;20052;-84
2023/05/23 17:56:27;;;;;;;15.57;10.43;;;;;;;;;;6279276;28;20184;-83
2023/05/23 17:59:27;;;;;;;18.23;10.77;;;;;;;;;;6275008;28;20028;-83
2023/05/23 18:02:28;;;;;;;16.00;10.33;;;;;;;;;;6274303;28;20573;-82